createdAt,value
2018-05-25T00:00:14.949Z,17.17
2018-05-25T00:01:24.700Z,17.16
2018-05-25T00:02:34.719Z,17.12
2018-05-25T00:03:43.927Z,17.09
2018-05-25T00:04:53.939Z,17.02
2018-05-25T00:06:03.963Z,16.91
2018-05-25T00:07:13.440Z,16.82
2018-05-25T00:08:23.188Z,16.83
2018-05-25T00:09:32.928Z,16.73
2018-05-25T00:10:43.006Z,16.74
2018-05-25T00:11:52.760Z,16.68
2018-05-25T00:13:02.776Z,16.77
2018-05-25T00:14:12.517Z,16.79
2018-05-25T00:15:22.289Z,16.83
2018-05-25T00:16:32.035Z,16.76
2018-05-25T00:17:41.779Z,16.79
2018-05-25T00:18:51.524Z,16.82
2018-05-25T00:20:01.542Z,16.84
2018-05-25T00:21:11.559Z,16.87
2018-05-25T00:22:21.303Z,16.83
2018-05-25T00:23:30.779Z,16.66
2018-05-25T00:24:40.814Z,16.62
2018-05-25T00:25:50.592Z,16.64
2018-05-25T00:27:00.609Z,16.62
2018-05-25T00:28:10.349Z,16.61
2018-05-25T00:29:20.362Z,16.5
2018-05-25T00:30:30.373Z,16.4
2018-05-25T00:31:40.385Z,16.31
2018-05-25T00:32:50.403Z,16.18
2018-05-25T00:34:00.415Z,16.06
2018-05-25T00:35:09.623Z,15.96
2018-05-25T00:36:19.429Z,15.75
2018-05-25T00:37:29.448Z,15.76
2018-05-25T00:38:39.190Z,15.7
2018-05-25T00:39:49.201Z,15.62
2018-05-25T00:40:58.683Z,15.63
2018-05-25T00:42:08.423Z,15.47
2018-05-25T00:43:18.439Z,15.44
2018-05-25T00:44:28.458Z,15.45
2018-05-25T00:45:37.935Z,15.36
2018-05-25T00:46:47.417Z,15.3
2018-05-25T00:47:57.453Z,15.35
2018-05-25T00:49:06.665Z,15.17
2018-05-25T00:50:16.141Z,15.18
2018-05-25T00:51:25.917Z,15.14
2018-05-25T00:52:35.676Z,15.14
2018-05-25T00:53:45.687Z,15.07
2018-05-25T00:54:55.700Z,15.05
2018-05-25T00:56:05.726Z,14.94
2018-05-25T00:57:15.741Z,14.97
2018-05-25T00:58:25.754Z,14.99
2018-05-25T00:59:35.809Z,14.97
2018-05-25T01:00:45.820Z,14.96
2018-05-25T01:01:55.587Z,14.9
2018-05-25T01:03:05.593Z,14.93
2018-05-25T01:04:15.080Z,14.9
2018-05-25T01:05:24.557Z,14.86
2018-05-25T01:06:34.305Z,14.9
2018-05-25T01:07:44.049Z,14.87
2018-05-25T01:08:53.788Z,14.93
2018-05-25T01:10:03.544Z,14.93
2018-05-25T01:11:13.915Z,14.82
2018-05-25T01:12:23.941Z,14.85
2018-05-25T01:13:33.961Z,14.79
2018-05-25T01:14:43.747Z,14.87
2018-05-25T01:15:53.769Z,14.78
2018-05-25T01:17:03.517Z,14.85
2018-05-25T01:18:13.530Z,14.89
2018-05-25T01:19:23.552Z,14.92
2018-05-25T01:20:33.569Z,14.89
2018-05-25T01:21:43.313Z,14.92
2018-05-25T01:22:53.062Z,15
2018-05-25T01:24:03.079Z,15.07
2018-05-25T01:25:12.825Z,15.08
2018-05-25T01:26:22.840Z,15.04
2018-05-25T01:27:32.861Z,15.1
2018-05-25T01:28:42.884Z,15.05
2018-05-25T01:29:52.893Z,14.87
2018-05-25T01:31:02.901Z,14.97
2018-05-25T01:32:12.649Z,14.93
2018-05-25T01:33:22.668Z,14.87
2018-05-25T01:34:32.684Z,14.94
2018-05-25T01:35:42.698Z,14.94
2018-05-25T01:36:52.445Z,14.94
2018-05-25T01:38:02.186Z,14.94
2018-05-25T01:39:11.935Z,14.93
2018-05-25T01:40:21.688Z,14.92
2018-05-25T01:41:31.437Z,15.02
2018-05-25T01:42:41.188Z,14.92
2018-05-25T01:43:51.203Z,14.9
2018-05-25T01:45:00.947Z,14.94
2018-05-25T01:46:10.701Z,14.93
2018-05-25T01:47:20.447Z,14.9
2018-05-25T01:48:30.454Z,14.9
2018-05-25T01:49:40.194Z,14.9
2018-05-25T01:50:50.203Z,14.9
2018-05-25T01:51:59.943Z,14.82
2018-05-25T01:53:09.684Z,14.85
2018-05-25T01:54:19.426Z,14.81
2018-05-25T01:55:29.479Z,14.73
2018-05-25T01:56:39.505Z,14.74
2018-05-25T01:57:49.515Z,14.82
2018-05-25T01:58:59.532Z,14.62
2018-05-25T02:00:09.544Z,14.74
2018-05-25T02:01:19.568Z,14.71
2018-05-25T02:02:29.580Z,14.58
2018-05-25T02:03:39.590Z,14.67
2018-05-25T02:04:49.334Z,14.67
2018-05-25T02:05:59.079Z,14.7
2018-05-25T02:07:08.562Z,14.62
2018-05-25T02:08:18.574Z,14.66
2018-05-25T02:09:28.586Z,14.67
2018-05-25T02:10:38.060Z,14.74
2018-05-25T02:11:47.537Z,14.68
2018-05-25T02:12:56.747Z,14.67
2018-05-25T02:14:06.768Z,14.66
2018-05-25T02:15:16.784Z,14.58
2018-05-25T02:16:26.798Z,14.66
2018-05-25T02:17:36.807Z,14.58
2018-05-25T02:18:46.283Z,14.52
2018-05-25T02:19:55.762Z,14.53
2018-05-25T02:21:05.543Z,14.58
2018-05-25T02:22:15.283Z,14.51
2018-05-25T02:23:25.295Z,14.51
2018-05-25T02:24:35.036Z,14.38
2018-05-25T02:25:45.049Z,14.38
2018-05-25T02:26:55.105Z,14.28
2018-05-25T02:28:04.313Z,14.34
2018-05-25T02:29:14.055Z,14.37
2018-05-25T02:30:24.069Z,14.26
2018-05-25T02:31:34.077Z,14.23
2018-05-25T02:32:43.832Z,14.26
2018-05-25T02:33:53.575Z,14.18
2018-05-25T02:35:03.320Z,14.2
2018-05-25T02:36:13.339Z,14.12
2018-05-25T02:37:22.821Z,14.2
2018-05-25T02:38:32.932Z,14.12
2018-05-25T02:39:43.115Z,14.03
2018-05-25T02:40:53.134Z,14.15
2018-05-25T02:42:02.619Z,14.15
2018-05-25T02:43:12.376Z,14.07
2018-05-25T02:44:22.403Z,14.05
2018-05-25T02:45:32.432Z,14.03
2018-05-25T02:46:42.453Z,14.04
2018-05-25T02:47:52.200Z,14.04
2018-05-25T02:49:01.956Z,14.12
2018-05-25T02:50:11.158Z,14.08
2018-05-25T02:51:20.910Z,14.11
2018-05-25T02:52:30.467Z,14.13
2018-05-25T02:53:40.212Z,14.22
2018-05-25T02:54:49.956Z,14.33
2018-05-25T02:55:59.966Z,14.26
2018-05-25T02:57:09.730Z,14.31
2018-05-25T02:58:19.527Z,14.38
2018-05-25T02:59:28.742Z,14.4
2018-05-25T03:03:26.278Z,14.36
2018-05-25T03:04:36.021Z,14.38
2018-05-25T03:05:46.040Z,14.37
2018-05-25T03:06:55.788Z,14.4
2018-05-25T03:08:05.820Z,14.34
2018-05-25T03:09:15.312Z,14.41
2018-05-25T03:10:24.259Z,14.44
2018-05-25T03:11:34.275Z,14.37
2018-05-25T03:12:44.293Z,14.31
2018-05-25T03:13:54.316Z,14.26
2018-05-25T03:15:04.067Z,14.25
2018-05-25T03:16:13.817Z,14.3
2018-05-25T03:17:23.292Z,14.23
2018-05-25T03:18:33.314Z,14.19
2018-05-25T03:19:43.073Z,14.25
2018-05-25T03:20:52.869Z,14.2
2018-05-25T03:22:02.883Z,14.25
2018-05-25T03:23:12.902Z,14.26
2018-05-25T03:24:22.918Z,14.28
2018-05-25T03:25:32.928Z,14.3
2018-05-25T03:26:42.677Z,14.28
2018-05-25T03:27:52.701Z,14.28
2018-05-25T03:29:02.449Z,14.43
2018-05-25T03:30:11.926Z,14.37
2018-05-25T03:31:21.959Z,14.34
2018-05-25T03:32:31.712Z,14.45
2018-05-25T03:33:41.728Z,14.48
2018-05-25T03:34:51.741Z,14.43
2018-05-25T03:36:01.217Z,14.56
2018-05-25T03:37:10.697Z,14.56
2018-05-25T03:38:19.905Z,14.45
2018-05-25T03:39:29.914Z,14.44
2018-05-25T03:40:39.922Z,14.58
2018-05-25T03:41:49.678Z,14.51
2018-05-25T03:42:59.424Z,14.58
2018-05-25T03:44:09.437Z,14.61
2018-05-25T03:45:19.445Z,14.61
2018-05-25T03:46:29.454Z,14.7
2018-05-25T03:47:39.197Z,14.67
2018-05-25T03:48:49.209Z,14.71
2018-05-25T03:49:58.952Z,14.78
2018-05-25T03:51:08.696Z,14.73
2018-05-25T03:52:18.449Z,14.81
2018-05-25T03:53:27.928Z,14.73
2018-05-25T03:54:37.943Z,14.82
2018-05-25T03:55:47.965Z,14.82
2018-05-25T03:56:57.975Z,14.87
2018-05-25T03:58:07.717Z,14.81
2018-05-25T03:59:17.209Z,14.86
2018-05-25T04:00:27.231Z,14.9
2018-05-25T04:01:37.360Z,14.87
2018-05-25T04:02:47.522Z,14.85
2018-05-25T04:03:57.284Z,14.86
2018-05-25T04:05:07.368Z,14.89
2018-05-25T04:06:17.391Z,14.82
2018-05-25T04:07:27.404Z,14.87
2018-05-25T04:08:37.416Z,14.92
2018-05-25T04:09:47.428Z,14.92
2018-05-25T04:10:57.438Z,14.89
2018-05-25T04:12:06.381Z,14.93
2018-05-25T04:13:16.393Z,14.96
2018-05-25T04:14:26.435Z,14.92
2018-05-25T04:15:35.924Z,14.94
2018-05-25T04:16:45.402Z,14.96
2018-05-25T04:17:55.419Z,15
2018-05-25T04:19:05.170Z,15.04
2018-05-25T04:20:14.913Z,15.07
2018-05-25T04:21:24.669Z,14.97
2018-05-25T04:22:34.686Z,14.99
2018-05-25T04:23:44.431Z,15.1
2018-05-25T04:24:53.958Z,15.02
2018-05-25T04:26:03.702Z,14.99
2018-05-25T04:27:13.185Z,15.08
2018-05-25T04:28:23.210Z,15.17
2018-05-25T04:29:33.225Z,15.15
2018-05-25T04:30:43.238Z,15.17
2018-05-25T04:31:53.253Z,15.18
2018-05-25T04:33:03.269Z,15.26
2018-05-25T04:34:13.285Z,15.23
2018-05-25T04:35:23.296Z,15.27
2018-05-25T04:36:33.042Z,15.26
2018-05-25T04:37:43.054Z,15.3
2018-05-25T04:38:52.799Z,15.3
2018-05-25T04:40:02.855Z,15.33
2018-05-25T04:41:12.884Z,15.36
2018-05-25T04:42:22.365Z,15.43
2018-05-25T04:43:32.115Z,15.36
2018-05-25T04:44:41.597Z,15.48
2018-05-25T04:45:51.085Z,15.45
2018-05-25T04:47:00.833Z,15.44
2018-05-25T04:48:10.311Z,15.57
2018-05-25T04:49:20.055Z,15.52
2018-05-25T04:50:30.069Z,15.6
2018-05-25T04:51:39.848Z,15.65
2018-05-25T04:52:49.327Z,15.6
2018-05-25T04:53:58.815Z,15.63
2018-05-25T04:55:08.836Z,15.62
2018-05-25T04:56:18.583Z,15.63
2018-05-25T04:57:28.601Z,15.66
2018-05-25T04:58:38.353Z,15.67
2018-05-25T04:59:47.825Z,15.6
2018-05-25T05:00:57.569Z,15.67
2018-05-25T05:02:07.313Z,15.76
2018-05-25T05:03:17.355Z,15.78
2018-05-25T05:04:26.845Z,15.76
2018-05-25T05:05:36.608Z,15.75
2018-05-25T05:06:46.641Z,15.73
2018-05-25T05:07:56.116Z,15.84
2018-05-25T05:09:05.862Z,15.81
2018-05-25T05:10:15.876Z,15.87
2018-05-25T05:11:25.622Z,15.91
2018-05-25T05:12:35.380Z,15.91
2018-05-25T05:13:44.589Z,15.9
2018-05-25T05:14:54.145Z,15.87
2018-05-25T05:16:03.954Z,15.91
2018-05-25T05:17:13.979Z,15.98
2018-05-25T05:18:23.996Z,15.99
2018-05-25T05:19:34.042Z,15.92
2018-05-25T05:20:44.060Z,15.87
2018-05-25T05:21:54.079Z,15.96
2018-05-25T05:23:04.241Z,16.03
2018-05-25T05:24:13.796Z,16.05
2018-05-25T05:25:23.804Z,15.92
2018-05-25T05:26:33.587Z,16.02
2018-05-25T05:27:43.085Z,15.98
2018-05-25T05:28:52.574Z,16.02
2018-05-25T05:30:02.051Z,16.1
2018-05-25T05:31:11.799Z,16.02
2018-05-25T05:32:21.552Z,16.09
2018-05-25T05:33:31.583Z,16.06
2018-05-25T05:34:41.445Z,16.16
2018-05-25T05:35:51.194Z,16.17
2018-05-25T05:37:01.221Z,16.18
2018-05-25T05:38:10.972Z,16.28
2018-05-25T05:39:20.725Z,16.21
2018-05-25T05:40:30.516Z,16.28
2018-05-25T05:41:40.268Z,16.26
2018-05-25T05:42:50.324Z,16.36
2018-05-25T05:44:00.341Z,16.29
2018-05-25T05:45:10.085Z,16.28
2018-05-25T05:46:20.119Z,16.29
2018-05-25T05:47:30.139Z,16.37
2018-05-25T05:48:39.884Z,16.36
2018-05-25T05:49:49.896Z,16.39
2018-05-25T05:51:00.148Z,16.37
2018-05-25T05:52:09.914Z,16.34
2018-05-25T05:53:19.935Z,16.34
2018-05-25T05:54:29.686Z,16.34
2018-05-25T05:55:39.432Z,16.44
2018-05-25T05:56:49.448Z,16.43
2018-05-25T05:57:59.192Z,16.39
2018-05-25T05:59:09.202Z,16.49
2018-05-25T06:00:19.238Z,16.54
2018-05-25T06:01:28.990Z,16.54
2018-05-25T06:02:38.742Z,16.58
2018-05-25T06:03:48.219Z,16.59
2018-05-25T06:04:58.232Z,16.54
2018-05-25T06:06:07.716Z,16.55
2018-05-25T06:07:17.736Z,16.59
2018-05-25T06:08:27.221Z,16.57
2018-05-25T06:09:37.236Z,16.51
2018-05-25T06:10:47.258Z,16.51
2018-05-25T06:11:57.276Z,16.43
2018-05-25T06:13:06.765Z,16.55
2018-05-25T06:14:16.780Z,16.55
2018-05-25T06:15:26.525Z,16.58
2018-05-25T06:16:35.741Z,16.61
2018-05-25T06:17:45.762Z,16.54
2018-05-25T06:18:55.515Z,16.54
2018-05-25T06:20:05.062Z,16.62
2018-05-25T06:21:14.890Z,16.5
2018-05-25T06:22:24.379Z,16.55
2018-05-25T06:23:34.137Z,16.55
2018-05-25T06:24:43.894Z,16.64
2018-05-25T06:25:53.646Z,16.69
2018-05-25T06:27:03.238Z,16.73
2018-05-25T06:28:12.985Z,16.73
2018-05-25T06:29:23.008Z,16.83
2018-05-25T06:30:32.760Z,16.89
2018-05-25T06:31:42.511Z,16.83
2018-05-25T06:32:52.310Z,16.91
2018-05-25T06:34:02.340Z,16.99
2018-05-25T06:35:12.369Z,17.01
2018-05-25T06:36:22.118Z,17.07
2018-05-25T06:37:31.868Z,17.16
2018-05-25T06:38:41.619Z,17.17
2018-05-25T06:39:51.378Z,17.09
2018-05-25T06:41:01.397Z,17.17
2018-05-25T06:42:10.880Z,17.24
2018-05-25T06:43:20.629Z,17.17
2018-05-25T06:44:30.911Z,17.24
2018-05-25T06:45:40.661Z,17.39
2018-05-25T06:46:50.150Z,17.23
2018-05-25T06:47:59.900Z,17.2
2018-05-25T06:49:09.391Z,17.22
2018-05-25T06:50:18.877Z,17.32
2018-05-25T06:51:28.905Z,17.13
2018-05-25T06:52:38.657Z,17.17
2018-05-25T06:53:48.436Z,17.32
2018-05-25T06:54:57.932Z,17.28
2018-05-25T06:56:07.698Z,17.31
2018-05-25T06:57:17.721Z,17.42
2018-05-25T06:58:27.464Z,17.34
2018-05-25T06:59:37.486Z,17.35
2018-05-25T07:00:46.974Z,17.39
2018-05-25T07:01:56.987Z,17.46
2018-05-25T07:03:07.011Z,17.49
2018-05-25T07:04:16.769Z,17.52
2018-05-25T07:05:26.532Z,17.49
2018-05-25T07:06:36.295Z,17.39
2018-05-25T07:07:46.310Z,17.5
2018-05-25T07:08:56.327Z,17.5
2018-05-25T07:10:06.348Z,17.56
2018-05-25T07:11:16.099Z,17.54
2018-05-25T07:12:25.853Z,17.71
2018-05-25T07:13:35.865Z,17.66
2018-05-25T07:14:45.348Z,17.73
2018-05-25T07:15:55.365Z,17.76
2018-05-25T07:17:04.940Z,17.78
2018-05-25T07:18:15.050Z,17.78
2018-05-25T07:19:25.063Z,17.84
2018-05-25T07:20:34.547Z,17.93
2018-05-25T07:21:44.565Z,17.94
2018-05-25T07:22:54.048Z,18.06
2018-05-25T07:24:03.793Z,18.18
2018-05-25T07:25:13.824Z,18.08
2018-05-25T07:26:23.843Z,18.13
2018-05-25T07:27:33.862Z,18.15
2018-05-25T07:28:43.354Z,18.06
2018-05-25T07:29:53.106Z,18.13
2018-05-25T07:31:02.858Z,18.26
2018-05-25T07:32:12.336Z,18.21
2018-05-25T07:33:22.149Z,18.21
2018-05-25T07:34:31.639Z,18.28
2018-05-25T07:35:41.391Z,18.34
2018-05-25T07:36:51.410Z,18.52
2018-05-25T07:38:01.429Z,18.46
2018-05-25T07:39:11.178Z,18.42
2018-05-25T07:40:20.724Z,18.41
2018-05-25T07:41:30.201Z,18.33
2018-05-25T07:42:39.683Z,18.51
2018-05-25T07:43:49.434Z,18.61
2018-05-25T07:44:58.912Z,18.52
2018-05-25T07:46:08.394Z,18.66
2018-05-25T07:47:17.874Z,18.66
2018-05-25T07:48:27.891Z,18.7
2018-05-25T07:49:37.907Z,18.73
2018-05-25T07:50:47.391Z,18.73
2018-05-25T07:51:57.143Z,18.73
2018-05-25T07:53:06.381Z,18.82
2018-05-25T07:54:16.140Z,18.89
2018-05-25T07:55:25.930Z,18.85
2018-05-25T07:56:35.676Z,18.89
2018-05-25T07:57:45.427Z,19.01
2018-05-25T07:58:55.451Z,19.04
2018-05-25T08:00:05.197Z,19.19
2018-05-25T08:01:14.682Z,19.15
2018-05-25T08:02:24.449Z,19.23
2018-05-25T08:03:34.199Z,19.12
2018-05-25T08:04:44.222Z,19.23
2018-05-25T08:05:54.235Z,19.27
2018-05-25T08:07:04.257Z,19.27
2018-05-25T08:08:14.008Z,19.22
2018-05-25T08:09:24.025Z,19.34
2018-05-25T08:10:34.047Z,19.47
2018-05-25T08:11:43.810Z,19.45
2018-05-25T08:12:53.562Z,19.56
2018-05-25T08:14:03.325Z,19.62
2018-05-25T08:15:12.817Z,19.67
2018-05-25T08:16:22.301Z,19.81
2018-05-25T08:17:32.054Z,19.78
2018-05-25T08:18:42.072Z,19.99
2018-05-25T08:19:51.820Z,20.03
2018-05-25T08:21:01.571Z,20.11
2018-05-25T08:22:10.792Z,20.11
2018-05-25T08:23:20.557Z,20.34
2018-05-25T08:24:30.062Z,20.3
2018-05-25T08:25:39.806Z,20.3
2018-05-25T08:26:49.298Z,20.42
2018-05-25T08:27:59.356Z,20.52
2018-05-25T08:29:08.953Z,20.55
2018-05-25T08:30:18.859Z,20.63
2018-05-25T08:31:28.915Z,20.67
2018-05-25T08:32:38.970Z,20.75
2018-05-25T08:33:48.987Z,20.86
2018-05-25T08:34:58.767Z,20.86
2018-05-25T08:36:08.321Z,20.89
2018-05-25T08:37:18.372Z,21.01
2018-05-25T08:38:28.212Z,20.98
2018-05-25T08:39:38.283Z,21.08
2018-05-25T08:40:48.033Z,21.05
2018-05-25T08:41:58.050Z,21.17
2018-05-25T08:43:08.069Z,21.19
2018-05-25T08:44:18.099Z,21.35
2018-05-25T08:45:27.848Z,21.37
2018-05-25T08:46:37.615Z,21.38
2018-05-25T08:47:47.370Z,21.45
2018-05-25T08:48:57.391Z,21.51
2018-05-25T08:50:06.610Z,21.56
2018-05-25T08:51:16.370Z,21.56
2018-05-25T08:52:26.118Z,21.58
2018-05-25T08:53:35.598Z,21.74
2018-05-25T08:54:45.087Z,21.69
2018-05-25T08:55:54.847Z,21.8
2018-05-25T08:57:04.932Z,21.74
2018-05-25T08:58:14.681Z,21.78
2018-05-25T08:59:24.425Z,21.8
2018-05-25T09:00:34.188Z,21.91
2018-05-25T09:01:43.946Z,21.97
2018-05-25T09:02:53.779Z,22.01
2018-05-25T09:04:03.260Z,22.08
2018-05-25T09:05:13.013Z,22.14
2018-05-25T09:06:22.763Z,22.16
2018-05-25T09:07:32.513Z,22.22
2018-05-25T09:08:42.531Z,22.26
2018-05-25T09:09:52.566Z,22.37
2018-05-25T09:11:02.057Z,22.36
2018-05-25T09:12:12.080Z,22.43
2018-05-25T09:13:21.581Z,22.49
2018-05-25T09:14:31.332Z,22.53
2018-05-25T09:15:41.080Z,22.65
2018-05-25T09:16:50.825Z,22.56
2018-05-25T09:18:00.852Z,22.62
2018-05-25T09:19:10.880Z,22.65
2018-05-25T09:20:20.362Z,22.68
2018-05-25T09:21:30.117Z,22.65
2018-05-25T09:22:39.877Z,22.74
2018-05-25T09:23:49.631Z,22.77
2018-05-25T09:24:59.653Z,22.83
2018-05-25T09:26:09.465Z,22.86
2018-05-25T09:27:19.483Z,22.96
2018-05-25T09:28:29.247Z,22.92
2018-05-25T09:29:39.005Z,23.01
2018-05-25T09:30:49.102Z,23.02
2018-05-25T09:31:59.233Z,23.04
2018-05-25T09:33:08.447Z,23.1
2018-05-25T09:34:18.216Z,23.13
2018-05-25T09:35:28.019Z,23.13
2018-05-25T09:36:37.774Z,23.14
2018-05-25T09:37:47.808Z,23.25
2018-05-25T09:38:57.563Z,23.25
2018-05-25T09:40:07.348Z,23.32
2018-05-25T09:41:17.368Z,23.25
2018-05-25T09:42:27.385Z,23.34
2018-05-25T09:43:36.603Z,23.42
2018-05-25T09:44:46.088Z,23.42
2018-05-25T09:45:56.115Z,23.4
2018-05-25T09:47:05.865Z,23.42
2018-05-25T09:48:15.888Z,23.4
2018-05-25T09:49:25.640Z,23.56
2018-05-25T09:50:35.394Z,23.66
2018-05-25T09:51:45.422Z,23.56
2018-05-25T09:52:55.443Z,23.76
2018-05-25T09:54:05.463Z,23.81
2018-05-25T09:55:15.483Z,23.89
2018-05-25T09:56:25.507Z,23.92
2018-05-25T09:57:35.254Z,24.1
2018-05-25T09:58:44.744Z,23.95
2018-05-25T09:59:54.492Z,24.09
2018-05-25T10:01:04.249Z,24.16
2018-05-25T10:02:14.002Z,24.25
2018-05-25T10:03:23.485Z,24.24
2018-05-25T10:04:33.513Z,24.34
2018-05-25T10:05:43.315Z,24.37
2018-05-25T10:06:53.335Z,24.47
2018-05-25T10:08:02.829Z,24.53
2018-05-25T10:09:12.314Z,24.58
2018-05-25T10:10:22.331Z,24.62
2018-05-25T10:11:32.102Z,24.69
2018-05-25T10:12:42.120Z,24.71
2018-05-25T10:13:51.618Z,24.81
2018-05-25T10:15:01.374Z,24.78
2018-05-25T10:16:11.136Z,24.89
2018-05-25T10:17:21.169Z,24.88
2018-05-25T10:18:31.197Z,25
2018-05-25T10:19:40.681Z,25
2018-05-25T10:20:50.462Z,25.01
2018-05-25T10:21:59.683Z,25.14
2018-05-25T10:23:09.713Z,25.06
2018-05-25T10:24:19.753Z,25.15
2018-05-25T10:25:29.233Z,25.11
2018-05-25T10:26:38.985Z,25.15
2018-05-25T10:27:48.755Z,25.14
2018-05-25T10:28:57.975Z,25.26
2018-05-25T10:30:07.998Z,25.34
2018-05-25T10:31:17.499Z,25.34
2018-05-25T10:32:27.250Z,25.4
2018-05-25T10:33:37.005Z,25.43
2018-05-25T10:34:46.760Z,25.46
2018-05-25T10:35:56.511Z,25.48
2018-05-25T10:37:06.310Z,25.63
2018-05-25T10:38:16.331Z,25.68
2018-05-25T10:39:26.091Z,25.7
2018-05-25T10:40:35.842Z,25.74
2018-05-25T10:41:45.603Z,25.77
2018-05-25T10:42:55.445Z,25.77
2018-05-25T10:44:05.242Z,25.77
2018-05-25T10:45:15.263Z,25.91
2018-05-25T10:46:25.016Z,26.01
2018-05-25T10:47:35.036Z,25.92
2018-05-25T10:48:45.217Z,25.93
2018-05-25T10:49:55.305Z,26.07
2018-05-25T10:51:05.068Z,26.03
2018-05-25T10:52:15.092Z,25.96
2018-05-25T10:53:25.109Z,26.07
2018-05-25T10:54:35.135Z,26.15
2018-05-25T10:55:44.892Z,26.13
2018-05-25T10:56:54.642Z,26.23
2018-05-25T10:58:04.132Z,26.27
2018-05-25T10:59:14.151Z,26.31
2018-05-25T11:00:23.911Z,26.42
2018-05-25T11:01:33.130Z,26.39
2018-05-25T11:02:43.172Z,26.55
2018-05-25T11:03:53.270Z,26.64
2018-05-25T11:05:03.288Z,26.67
2018-05-25T11:06:12.771Z,26.68
2018-05-25T11:07:22.799Z,26.74
2018-05-25T11:08:32.286Z,26.71
2018-05-25T11:09:42.037Z,26.85
2018-05-25T11:10:51.791Z,26.98
2018-05-25T11:12:01.817Z,27.03
2018-05-25T11:13:11.581Z,27.1
2018-05-25T11:14:21.612Z,27.15
2018-05-25T11:15:31.371Z,27.13
2018-05-25T11:16:41.131Z,27.16
2018-05-25T11:17:51.153Z,27.18
2018-05-25T11:19:01.181Z,27.16
2018-05-25T11:20:10.675Z,27.25
2018-05-25T11:21:20.693Z,27.25
2018-05-25T11:22:30.178Z,27.26
2018-05-25T11:23:39.946Z,27.29
2018-05-25T11:24:49.963Z,27.44
2018-05-25T11:25:59.727Z,27.58
2018-05-25T11:27:09.664Z,27.79
2018-05-25T11:28:19.700Z,28.16
2018-05-25T11:29:28.919Z,28.4
2018-05-25T11:30:38.140Z,28.83
2018-05-25T11:31:48.177Z,29.3
2018-05-25T11:32:58.198Z,29.74
2018-05-25T11:34:07.952Z,30.26
2018-05-25T11:35:17.443Z,30.73
2018-05-25T11:36:27.195Z,31.26
2018-05-25T11:37:36.955Z,31.77
2018-05-25T11:38:46.978Z,32.3
2018-05-25T11:39:56.743Z,32.81
2018-05-25T11:41:06.513Z,33.2
2018-05-25T11:42:16.273Z,33.61
2018-05-25T11:43:26.300Z,34
2018-05-25T11:44:36.063Z,34.32
2018-05-25T11:45:46.095Z,34.7
2018-05-25T11:46:56.123Z,35.19
2018-05-25T11:48:06.173Z,35.47
2018-05-25T11:49:16.209Z,35.74
2018-05-25T11:50:26.241Z,35.79
2018-05-25T11:51:36.269Z,36.11
2018-05-25T11:52:46.297Z,36.28
2018-05-25T11:53:55.795Z,36.62
2018-05-25T11:55:05.826Z,37.01
2018-05-25T11:56:15.858Z,37.26
2018-05-25T11:57:25.622Z,37.53
2018-05-25T11:58:34.848Z,37.66
2018-05-25T11:59:44.343Z,37.94
2018-05-25T12:00:53.836Z,38
2018-05-25T12:02:03.601Z,38.35
2018-05-25T12:03:13.107Z,38.68
2018-05-25T12:04:22.603Z,38.91
2018-05-25T12:05:32.379Z,39.23
2018-05-25T12:06:42.025Z,39.46
2018-05-25T12:07:51.800Z,39.59
2018-05-25T12:09:01.571Z,39.73
2018-05-25T12:10:11.344Z,39.97
2018-05-25T12:11:21.380Z,40.13
2018-05-25T12:12:31.418Z,40.29
2018-05-25T12:13:41.458Z,40.61
2018-05-25T12:14:51.230Z,40.77
2018-05-25T12:16:00.997Z,40.8
2018-05-25T12:17:11.028Z,40.92
2018-05-25T12:18:21.059Z,41.03
2018-05-25T12:19:31.104Z,41.34
2018-05-25T12:20:40.881Z,41.61
2018-05-25T12:21:50.925Z,41.84
2018-05-25T12:23:00.973Z,42
2018-05-25T12:24:11.014Z,41.93
2018-05-25T12:25:20.526Z,42.09
2018-05-25T12:26:30.296Z,42.25
2018-05-25T12:27:39.799Z,42.39
2018-05-25T12:28:49.833Z,42.43
2018-05-25T12:29:59.862Z,42.65
2018-05-25T12:31:08.829Z,42.75
2018-05-25T12:32:18.865Z,42.94
2018-05-25T12:33:28.909Z,42.92
2018-05-25T12:34:38.140Z,42.97
2018-05-25T12:35:48.222Z,42.92
2018-05-25T12:36:58.263Z,43.03
2018-05-25T12:38:08.303Z,43.11
2018-05-25T12:39:18.085Z,43.16
2018-05-25T12:40:28.177Z,43.05
2018-05-25T12:41:37.714Z,43.38
2018-05-25T12:42:47.750Z,43.43
2018-05-25T12:43:57.250Z,43.31
2018-05-25T12:45:06.213Z,43.28
2018-05-25T12:46:15.992Z,43.22
2018-05-25T12:47:25.768Z,43.16
2018-05-25T12:48:35.002Z,43.34
2018-05-25T12:49:44.769Z,43.54
2018-05-25T12:50:54.271Z,43.7
2018-05-25T12:52:04.050Z,43.73
2018-05-25T12:53:13.823Z,43.7
2018-05-25T12:54:23.857Z,43.72
2018-05-25T12:55:33.092Z,43.72
2018-05-25T12:56:42.950Z,43.84
2018-05-25T12:57:52.919Z,43.82
2018-05-25T12:59:02.960Z,43.84
2018-05-25T13:00:12.463Z,43.72
2018-05-25T13:01:22.506Z,43.76
2018-05-25T13:02:32.552Z,44.09
2018-05-25T13:03:42.587Z,44.18
2018-05-25T13:04:52.376Z,44.26
2018-05-25T13:06:02.146Z,44.04
2018-05-25T13:07:11.658Z,43.88
2018-05-25T13:08:21.724Z,43.95
2018-05-25T13:09:31.491Z,43.85
2018-05-25T13:10:41.267Z,44.06
2018-05-25T13:11:50.775Z,43.88
2018-05-25T13:13:00.810Z,44.06
2018-05-25T13:14:10.577Z,44.04
2018-05-25T13:15:20.624Z,44.38
2018-05-25T13:16:30.659Z,44.21
2018-05-25T13:17:40.433Z,44.48
2018-05-25T13:18:50.475Z,44.29
2018-05-25T13:20:00.242Z,44.35
2018-05-25T13:21:09.478Z,44.57
2018-05-25T13:22:19.247Z,44.77
2018-05-25T13:23:28.752Z,44.8
2018-05-25T13:24:38.524Z,44.92
2018-05-25T13:25:48.565Z,45.1
2018-05-25T13:26:58.606Z,45.33
2018-05-25T13:28:08.395Z,45.7
2018-05-25T13:29:18.449Z,45.82
2018-05-25T13:30:28.228Z,45.93
2018-05-25T13:31:38.360Z,45.88
2018-05-25T13:32:48.397Z,45.74
2018-05-25T13:33:58.165Z,45.61
2018-05-25T13:35:07.942Z,45.64
2018-05-25T13:36:17.718Z,45.26
2018-05-25T13:37:27.221Z,45.35
2018-05-25T13:38:37.000Z,45.66
2018-05-25T13:39:47.037Z,45.59
2018-05-25T13:40:56.546Z,45.48
2018-05-25T13:42:06.317Z,45.61
2018-05-25T13:43:15.825Z,45.58
2018-05-25T13:44:25.872Z,45.18
2018-05-25T13:45:35.644Z,44.92
2018-05-25T13:46:45.412Z,45.06
2018-05-25T13:47:55.451Z,45.35
2018-05-25T13:49:05.223Z,45.54
2018-05-25T13:50:14.989Z,45.47
2018-05-25T13:51:24.756Z,45.58
2018-05-25T13:52:34.797Z,45.77
2018-05-25T13:53:44.833Z,45.71
2018-05-25T13:54:54.604Z,45.89
2018-05-25T13:56:04.373Z,46.12
2018-05-25T13:57:14.146Z,46.15
2018-05-25T13:58:23.923Z,46.24
2018-05-25T13:59:33.460Z,46.4
2018-05-25T14:00:43.508Z,46.68
2018-05-25T14:01:53.281Z,46.74
2018-05-25T14:03:03.323Z,47
2018-05-25T14:04:13.104Z,47.18
2018-05-25T14:05:22.623Z,47.33
2018-05-25T14:06:32.409Z,47.38
2018-05-25T14:07:41.917Z,47.51
2018-05-25T14:08:51.699Z,47.57
2018-05-25T14:10:01.750Z,47.55
2018-05-25T14:11:11.528Z,47.35
2018-05-25T14:12:21.608Z,47.41
2018-05-25T14:13:31.650Z,47.23
2018-05-25T14:14:41.161Z,47.4
2018-05-25T14:15:50.940Z,47.25
2018-05-25T14:17:00.720Z,46.84
2018-05-25T14:18:10.235Z,46.93
2018-05-25T14:19:20.012Z,46.84
2018-05-25T14:20:29.524Z,46.68
2018-05-25T14:21:39.562Z,46.77
2018-05-25T14:22:49.333Z,46.88
2018-05-25T14:23:59.369Z,47.09
2018-05-25T14:25:09.403Z,47.41
2018-05-25T14:26:19.466Z,47.37
2018-05-25T14:27:29.244Z,47.42
2018-05-25T14:28:38.484Z,47.51
2018-05-25T14:29:48.252Z,47.73
2018-05-25T14:30:57.756Z,47.72
2018-05-25T14:32:07.528Z,47.89
2018-05-25T14:33:17.563Z,47.79
2018-05-25T14:34:27.342Z,47.76
2018-05-25T14:35:37.378Z,48.11
2018-05-25T14:36:47.412Z,48.13
2018-05-25T14:37:56.917Z,48.26
2018-05-25T14:39:06.696Z,48.17
2018-05-25T14:40:16.747Z,47.95
2018-05-25T14:41:26.927Z,48.08
2018-05-25T14:42:36.755Z,47.86
2018-05-25T14:43:46.828Z,47.98
2018-05-25T14:44:56.870Z,47.95
2018-05-25T14:46:06.643Z,47.7
2018-05-25T14:47:16.377Z,47.8
2018-05-25T14:48:26.472Z,47.64
2018-05-25T14:49:36.240Z,47.57
2018-05-25T14:50:46.286Z,47.61
2018-05-25T14:51:56.327Z,47.5
2018-05-25T14:53:05.842Z,47.47
2018-05-25T14:54:15.880Z,47.5
2018-05-25T14:55:25.380Z,47.67
2018-05-25T14:56:35.165Z,47.76
2018-05-25T14:57:44.938Z,47.8
2018-05-25T14:58:54.990Z,47.57
2018-05-25T15:00:05.122Z,47.7
2018-05-25T15:01:14.928Z,47.77
2018-05-25T15:02:24.695Z,47.96
2018-05-25T15:03:34.470Z,47.94
2018-05-25T15:04:44.242Z,47.96